首页
METAR-TAF:

METAR-TAF

机场 :

Dekalb-Peachtree Airport

亚特兰大, 喬治亞, 美国

纬度: 33-52-42N, 经度: 084-17-53W, 海拔: 305米

当前天气观测

该预报发布于7分钟前的10:53 UTC
风速4节,风向
温度 19°C
湿度 100%
气压 1018 hPa
能見度: 14.5公里
散云层高于2700英尺
散云层高于3400英尺

METAR: KPDK 261053Z 08004KT 9SM SCT027 SCT034 19/19 A3007 RMK AO2 SLP167 T01940189

时间: 07:00 (11:00 UTC)

预报

该预报发布于4小时和29分钟前的06:31 UTC
预报有效从26日的 07点(UTC)到 27日的 06点(UTC)
风速5节,风向
能見度: 10公里
多云层高于1000英尺
多云层高于2000英尺
从 26日的 0800点(UTC)
风速8节,风向
能見度: 10公里
多云层高于1500英尺
从 26日的 1600点(UTC)
风速11节,风向
能見度: 10公里
多云层高于2500英尺
几率 30%
从 26日的 20点(UTC)到 26日的 24点(UTC)
能見度: 6.4公里
多云层高于1500英尺
阵雨
从 27日的 0100点(UTC)
风速10节,风向
能見度: 10公里
多云层高于1800英尺
附近有阵雨
从 27日的 0500点(UTC)
风速9节,风向
能見度: 10公里
多云层高于900英尺

TAF: KPDK 260631Z 2607/2706 09005KT P6SM BKN010 BKN020 FM260800 10008KT P6SM BKN015 FM261600 10011KT P6SM BKN025 PROB30 2620/2624 4SM SHRA BKN015 FM270100 10010KT P6SM VCSH BKN018 FM270500 09009KT P6SM BKN009

超过4000个机场的气象观测和天气预报(METAR&TAF报告)。

可查询的气象台以黄色和红色小点在地图上表示。

将鼠标移到小点上方,可查看气象台名称。

然后点击查看天气观测和预报。

如需切换地图:点击带黑十字的绿色按钮放大地图;点击带横线的绿色按钮缩小地图;或者点击绿色箭头查看邻近地区的地图。


METAR-TAF: